sensor_id;sensor_type;location;lat;lon;timestamp;pressure;altitude;pressure_sealevel;temperature
30765;BMP180;494;48.744;10.106;2023-02-23T00:01:27;95095.00;;;8.90
30765;BMP180;494;48.744;10.106;2023-02-23T00:03:59;95173.00;;;9.40
30765;BMP180;494;48.744;10.106;2023-02-23T00:06:30;95225.00;;;9.50
30765;BMP180;494;48.744;10.106;2023-02-23T00:08:59;95095.00;;;9.50
30765;BMP180;494;48.744;10.106;2023-02-23T00:11:28;95386.00;;;9.20
30765;BMP180;494;48.744;10.106;2023-02-23T00:13:57;94941.00;;;9.20
30765;BMP180;494;48.744;10.106;2023-02-23T00:16:27;95479.00;;;9.50
30765;BMP180;494;48.744;10.106;2023-02-23T00:18:59;95362.00;;;9.40
30765;BMP180;494;48.744;10.106;2023-02-23T00:21:30;95352.00;;;9.30
30765;BMP180;494;48.744;10.106;2023-02-23T00:24:03;95279.00;;;9.30
30765;BMP180;494;48.744;10.106;2023-02-23T00:26:34;95185.00;;;8.90
30765;BMP180;494;48.744;10.106;2023-02-23T00:29:07;95124.00;;;9.20
30765;BMP180;494;48.744;10.106;2023-02-23T00:31:37;95341.00;;;8.40
30765;BMP180;494;48.744;10.106;2023-02-23T00:34:09;95351.00;;;9.30
30765;BMP180;494;48.744;10.106;2023-02-23T00:36:39;95234.00;;;9.30
30765;BMP180;494;48.744;10.106;2023-02-23T00:39:10;94884.00;;;9.30
30765;BMP180;494;48.744;10.106;2023-02-23T00:41:44;95129.00;;;8.40
30765;BMP180;494;48.744;10.106;2023-02-23T00:44:14;95135.00;;;9.20
30765;BMP180;494;48.744;10.106;2023-02-23T00:46:44;95353.00;;;9.20
30765;BMP180;494;48.744;10.106;2023-02-23T00:49:18;95387.00;;;9.20
30765;BMP180;494;48.744;10.106;2023-02-23T00:51:48;94585.00;;;9.30
30765;BMP180;494;48.744;10.106;2023-02-23T00:54:20;95356.00;;;9.10
30765;BMP180;494;48.744;10.106;2023-02-23T00:56:50;95116.00;;;9.20
30765;BMP180;494;48.744;10.106;2023-02-23T00:59:19;95385.00;;;9.20
30765;BMP180;494;48.744;10.106;2023-02-23T01:01:47;95356.00;;;9.10
30765;BMP180;494;48.744;10.106;2023-02-23T01:04:17;95355.00;;;9.20
30765;BMP180;494;48.744;10.106;2023-02-23T01:06:46;95058.00;;;9.20
30765;BMP180;494;48.744;10.106;2023-02-23T01:09:16;95101.00;;;8.60
30765;BMP180;494;48.744;10.106;2023-02-23T01:11:55;95351.00;;;9.10
30765;BMP180;494;48.744;10.106;2023-02-23T01:14:28;95348.00;;;9.10
30765;BMP180;494;48.744;10.106;2023-02-23T01:16:57;95350.00;;;9.00
30765;BMP180;494;48.744;10.106;2023-02-23T01:19:27;95354.00;;;9.10
30765;BMP180;494;48.744;10.106;2023-02-23T01:22:00;95354.00;;;8.90
30765;BMP180;494;48.744;10.106;2023-02-23T01:24:29;94947.00;;;9.00
30765;BMP180;494;48.744;10.106;2023-02-23T01:26:57;95155.00;;;6.70
30765;BMP180;494;48.744;10.106;2023-02-23T01:29:26;95420.00;;;6.00
30765;BMP180;494;48.744;10.106;2023-02-23T01:31:54;95436.00;;;8.80
30765;BMP180;494;48.744;10.106;2023-02-23T01:34:23;95217.00;;;8.90
30765;BMP180;494;48.744;10.106;2023-02-23T01:36:53;95240.00;;;8.40
30765;BMP180;494;48.744;10.106;2023-02-23T01:39:22;95088.00;;;9.00
30765;BMP180;494;48.744;10.106;2023-02-23T01:41:50;95151.00;;;9.10
30765;BMP180;494;48.744;10.106;2023-02-23T01:47:55;95350.00;;;9.10
30765;BMP180;494;48.744;10.106;2023-02-23T01:50:27;95349.00;;;9.20
30765;BMP180;494;48.744;10.106;2023-02-23T01:52:58;95037.00;;;9.20
30765;BMP180;494;48.744;10.106;2023-02-23T01:55:28;95195.00;;;9.10
30765;BMP180;494;48.744;10.106;2023-02-23T01:58:06;95212.00;;;9.20
30765;BMP180;494;48.744;10.106;2023-02-23T02:00:37;95409.00;;;7.70
30765;BMP180;494;48.744;10.106;2023-02-23T02:03:14;95151.00;;;8.90
30765;BMP180;494;48.744;10.106;2023-02-23T02:05:47;95324.00;;;9.00
30765;BMP180;494;48.744;10.106;2023-02-23T02:08:19;95037.00;;;8.00
30765;BMP180;494;48.744;10.106;2023-02-23T02:10:50;95323.00;;;9.10
30765;BMP180;494;48.744;10.106;2023-02-23T02:13:26;95045.00;;;9.10
30765;BMP180;494;48.744;10.106;2023-02-23T02:16:36;95325.00;;;9.20
30765;BMP180;494;48.744;10.106;2023-02-23T02:19:48;95065.00;;;9.20
30765;BMP180;494;48.744;10.106;2023-02-23T02:22:53;95165.00;;;9.20
30765;BMP180;494;48.744;10.106;2023-02-23T02:25:56;95062.00;;;7.60
30765;BMP180;494;48.744;10.106;2023-02-23T02:32:12;95282.00;;;9.00
30765;BMP180;494;48.744;10.106;2023-02-23T02:35:22;95308.00;;;9.00
30765;BMP180;494;48.744;10.106;2023-02-23T02:38:10;94690.00;;;9.00
30765;BMP180;494;48.744;10.106;2023-02-23T02:40:48;94990.00;;;8.60
30765;BMP180;494;48.744;10.106;2023-02-23T02:43:32;94973.00;;;8.50
30765;BMP180;494;48.744;10.106;2023-02-23T02:46:12;95355.00;;;9.00
30765;BMP180;494;48.744;10.106;2023-02-23T02:48:53;95195.00;;;8.90
30765;BMP180;494;48.744;10.106;2023-02-23T02:51:31;95267.00;;;8.30
30765;BMP180;494;48.744;10.106;2023-02-23T02:54:09;95105.00;;;9.00
30765;BMP180;494;48.744;10.106;2023-02-23T02:56:43;95341.00;;;9.00
30765;BMP180;494;48.744;10.106;2023-02-23T02:59:16;95310.00;;;9.10
30765;BMP180;494;48.744;10.106;2023-02-23T03:02:04;95347.00;;;9.10
30765;BMP180;494;48.744;10.106;2023-02-23T03:04:50;95316.00;;;9.10
30765;BMP180;494;48.744;10.106;2023-02-23T03:07:45;95069.00;;;8.50
30765;BMP180;494;48.744;10.106;2023-02-23T03:10:44;95090.00;;;9.00
30765;BMP180;494;48.744;10.106;2023-02-23T03:13:44;95314.00;;;9.10
30765;BMP180;494;48.744;10.106;2023-02-23T03:16:43;95338.00;;;8.40
30765;BMP180;494;48.744;10.106;2023-02-23T03:19:41;95327.00;;;9.10
30765;BMP180;494;48.744;10.106;2023-02-23T03:22:37;95053.00;;;9.10
30765;BMP180;494;48.744;10.106;2023-02-23T03:25:31;95357.00;;;9.10
30765;BMP180;494;48.744;10.106;2023-02-23T03:28:28;95359.00;;;9.00
30765;BMP180;494;48.744;10.106;2023-02-23T03:31:24;95167.00;;;9.00
30765;BMP180;494;48.744;10.106;2023-02-23T03:34:16;95306.00;;;9.10
30765;BMP180;494;48.744;10.106;2023-02-23T03:37:13;95347.00;;;9.10
30765;BMP180;494;48.744;10.106;2023-02-23T03:40:10;95306.00;;;8.80
30765;BMP180;494;48.744;10.106;2023-02-23T03:43:01;95278.00;;;8.90
30765;BMP180;494;48.744;10.106;2023-02-23T03:45:52;95148.00;;;8.60
30765;BMP180;494;48.744;10.106;2023-02-23T03:48:44;95061.00;;;8.20
30765;BMP180;494;48.744;10.106;2023-02-23T03:51:35;95310.00;;;8.90
30765;BMP180;494;48.744;10.106;2023-02-23T03:54:29;95278.00;;;8.90
30765;BMP180;494;48.744;10.106;2023-02-23T03:57:20;95226.00;;;8.70
30765;BMP180;494;48.744;10.106;2023-02-23T04:00:17;95318.00;;;9.00
30765;BMP180;494;48.744;10.106;2023-02-23T04:03:09;95312.00;;;9.00
30765;BMP180;494;48.744;10.106;2023-02-23T04:05:58;95250.00;;;8.60
30765;BMP180;494;48.744;10.106;2023-02-23T04:08:47;95315.00;;;8.70
30765;BMP180;494;48.744;10.106;2023-02-23T04:11:44;95214.00;;;9.00
30765;BMP180;494;48.744;10.106;2023-02-23T04:14:40;94963.00;;;8.90
30765;BMP180;494;48.744;10.106;2023-02-23T04:17:09;95398.00;;;8.70
30765;BMP180;494;48.744;10.106;2023-02-23T04:19:48;95311.00;;;8.50
30765;BMP180;494;48.744;10.106;2023-02-23T04:22:17;95203.00;;;8.90
30765;BMP180;494;48.744;10.106;2023-02-23T04:24:46;95345.00;;;8.80
30765;BMP180;494;48.744;10.106;2023-02-23T04:27:15;95368.00;;;8.90
30765;BMP180;494;48.744;10.106;2023-02-23T04:29:44;95158.00;;;8.10
30765;BMP180;494;48.744;10.106;2023-02-23T04:32:15;94852.00;;;8.70
30765;BMP180;494;48.744;10.106;2023-02-23T04:34:46;94950.00;;;8.70
30765;BMP180;494;48.744;10.106;2023-02-23T04:37:15;95321.00;;;8.80
30765;BMP180;494;48.744;10.106;2023-02-23T04:39:43;95065.00;;;8.90
30765;BMP180;494;48.744;10.106;2023-02-23T04:42:16;95042.00;;;8.80
30765;BMP180;494;48.744;10.106;2023-02-23T04:44:45;95220.00;;;7.80
30765;BMP180;494;48.744;10.106;2023-02-23T04:47:15;95400.00;;;8.90
30765;BMP180;494;48.744;10.106;2023-02-23T04:49:45;95474.00;;;9.00
30765;BMP180;494;48.744;10.106;2023-02-23T04:52:14;95155.00;;;9.10
30765;BMP180;494;48.744;10.106;2023-02-23T04:54:44;95315.00;;;9.00
30765;BMP180;494;48.744;10.106;2023-02-23T04:57:13;95318.00;;;8.90
30765;BMP180;494;48.744;10.106;2023-02-23T04:59:41;95417.00;;;7.00
30765;BMP180;494;48.744;10.106;2023-02-23T05:02:10;95320.00;;;9.00
30765;BMP180;494;48.744;10.106;2023-02-23T05:04:39;95006.00;;;9.00
30765;BMP180;494;48.744;10.106;2023-02-23T05:07:09;95401.00;;;9.10
30765;BMP180;494;48.744;10.106;2023-02-23T05:09:38;95377.00;;;8.90
30765;BMP180;494;48.744;10.106;2023-02-23T05:12:07;95059.00;;;9.00
30765;BMP180;494;48.744;10.106;2023-02-23T05:14:36;95319.00;;;9.00
30765;BMP180;494;48.744;10.106;2023-02-23T05:17:04;94800.00;;;9.00
30765;BMP180;494;48.744;10.106;2023-02-23T05:19:34;95401.00;;;8.50
30765;BMP180;494;48.744;10.106;2023-02-23T05:22:04;95182.00;;;8.90
30765;BMP180;494;48.744;10.106;2023-02-23T05:24:34;95188.00;;;9.00
30765;BMP180;494;48.744;10.106;2023-02-23T05:27:03;95381.00;;;8.20
30765;BMP180;494;48.744;10.106;2023-02-23T05:29:31;95365.00;;;8.90
30765;BMP180;494;48.744;10.106;2023-02-23T05:32:00;95334.00;;;8.90
30765;BMP180;494;48.744;10.106;2023-02-23T05:34:29;95062.00;;;7.70
30765;BMP180;494;48.744;10.106;2023-02-23T05:36:57;95223.00;;;8.70
30765;BMP180;494;48.744;10.106;2023-02-23T05:39:26;95157.00;;;8.90
30765;BMP180;494;48.744;10.106;2023-02-23T05:41:56;95048.00;;;8.80
30765;BMP180;494;48.744;10.106;2023-02-23T05:44:24;95029.00;;;8.70
30765;BMP180;494;48.744;10.106;2023-02-23T05:46:53;95129.00;;;8.40
30765;BMP180;494;48.744;10.106;2023-02-23T05:49:22;95117.00;;;6.90
30765;BMP180;494;48.744;10.106;2023-02-23T05:51:50;95248.00;;;8.90
30765;BMP180;494;48.744;10.106;2023-02-23T05:54:19;95274.00;;;7.00
30765;BMP180;494;48.744;10.106;2023-02-23T05:56:48;95391.00;;;8.80
30765;BMP180;494;48.744;10.106;2023-02-23T05:59:18;95072.00;;;9.00
30765;BMP180;494;48.744;10.106;2023-02-23T06:01:47;95296.00;;;9.00
30765;BMP180;494;48.744;10.106;2023-02-23T06:04:15;94825.00;;;8.70
30765;BMP180;494;48.744;10.106;2023-02-23T06:06:45;95376.00;;;8.90
30765;BMP180;494;48.744;10.106;2023-02-23T06:09:13;94830.00;;;8.90
30765;BMP180;494;48.744;10.106;2023-02-23T06:11:42;94529.00;;;7.60
30765;BMP180;494;48.744;10.106;2023-02-23T06:14:11;95432.00;;;8.80
30765;BMP180;494;48.744;10.106;2023-02-23T06:16:41;95357.00;;;8.90
30765;BMP180;494;48.744;10.106;2023-02-23T06:19:11;95098.00;;;8.70
30765;BMP180;494;48.744;10.106;2023-02-23T06:21:39;95067.00;;;8.90
30765;BMP180;494;48.744;10.106;2023-02-23T06:24:08;95422.00;;;8.80
30765;BMP180;494;48.744;10.106;2023-02-23T06:26:37;95334.00;;;8.90
30765;BMP180;494;48.744;10.106;2023-02-23T06:29:06;95292.00;;;9.00
30765;BMP180;494;48.744;10.106;2023-02-23T06:31:34;95078.00;;;7.60
30765;BMP180;494;48.744;10.106;2023-02-23T06:34:04;95288.00;;;9.10
30765;BMP180;494;48.744;10.106;2023-02-23T06:36:33;94907.00;;;8.90
30765;BMP180;494;48.744;10.106;2023-02-23T06:39:03;95343.00;;;8.80
30765;BMP180;494;48.744;10.106;2023-02-23T06:41:32;95390.00;;;8.80
30765;BMP180;494;48.744;10.106;2023-02-23T06:44:02;95100.00;;;8.90
30765;BMP180;494;48.744;10.106;2023-02-23T06:46:30;95149.00;;;9.00
30765;BMP180;494;48.744;10.106;2023-02-23T06:48:59;95344.00;;;9.00
30765;BMP180;494;48.744;10.106;2023-02-23T06:51:30;95382.00;;;8.90
30765;BMP180;494;48.744;10.106;2023-02-23T06:53:58;95223.00;;;9.00
30765;BMP180;494;48.744;10.106;2023-02-23T06:56:27;95354.00;;;9.00
30765;BMP180;494;48.744;10.106;2023-02-23T06:58:56;95131.00;;;9.00
30765;BMP180;494;48.744;10.106;2023-02-23T07:01:24;95297.00;;;9.20
30765;BMP180;494;48.744;10.106;2023-02-23T07:03:53;94385.00;;;9.20
30765;BMP180;494;48.744;10.106;2023-02-23T07:06:22;94917.00;;;9.30
30765;BMP180;494;48.744;10.106;2023-02-23T07:08:52;95342.00;;;9.30
30765;BMP180;494;48.744;10.106;2023-02-23T07:11:21;95415.00;;;9.30
30765;BMP180;494;48.744;10.106;2023-02-23T07:13:49;95512.00;;;9.30
30765;BMP180;494;48.744;10.106;2023-02-23T07:16:18;95276.00;;;9.30
30765;BMP180;494;48.744;10.106;2023-02-23T07:18:47;95432.00;;;9.40
30765;BMP180;494;48.744;10.106;2023-02-23T07:21:15;95267.00;;;9.30
30765;BMP180;494;48.744;10.106;2023-02-23T07:23:45;95143.00;;;9.40
30765;BMP180;494;48.744;10.106;2023-02-23T07:26:17;95328.00;;;9.30
30765;BMP180;494;48.744;10.106;2023-02-23T07:28:46;94973.00;;;9.30
30765;BMP180;494;48.744;10.106;2023-02-23T07:31:18;95213.00;;;8.10
30765;BMP180;494;48.744;10.106;2023-02-23T07:33:47;94989.00;;;7.80
30765;BMP180;494;48.744;10.106;2023-02-23T07:36:16;95111.00;;;9.50
30765;BMP180;494;48.744;10.106;2023-02-23T07:38:45;94377.00;;;9.40
30765;BMP180;494;48.744;10.106;2023-02-23T07:41:13;95397.00;;;9.40
30765;BMP180;494;48.744;10.106;2023-02-23T07:43:44;95367.00;;;9.60
30765;BMP180;494;48.744;10.106;2023-02-23T07:46:13;95357.00;;;9.70
30765;BMP180;494;48.744;10.106;2023-02-23T07:48:44;95368.00;;;9.70
30765;BMP180;494;48.744;10.106;2023-02-23T07:51:14;95128.00;;;9.80
30765;BMP180;494;48.744;10.106;2023-02-23T07:53:44;95302.00;;;9.90
30765;BMP180;494;48.744;10.106;2023-02-23T07:56:12;95473.00;;;9.90
30765;BMP180;494;48.744;10.106;2023-02-23T07:58:43;95361.00;;;10.00
30765;BMP180;494;48.744;10.106;2023-02-23T08:01:12;95033.00;;;10.00
30765;BMP180;494;48.744;10.106;2023-02-23T08:03:41;95238.00;;;9.60
30765;BMP180;494;48.744;10.106;2023-02-23T08:06:15;95353.00;;;10.10
30765;BMP180;494;48.744;10.106;2023-02-23T08:08:44;95153.00;;;9.90
30765;BMP180;494;48.744;10.106;2023-02-23T08:11:13;95229.00;;;10.10
30765;BMP180;494;48.744;10.106;2023-02-23T08:13:43;95314.00;;;10.20
30765;BMP180;494;48.744;10.106;2023-02-23T08:16:11;94723.00;;;9.40
30765;BMP180;494;48.744;10.106;2023-02-23T08:18:42;94645.00;;;10.30
30765;BMP180;494;48.744;10.106;2023-02-23T08:21:11;95363.00;;;9.90
30765;BMP180;494;48.744;10.106;2023-02-23T08:23:39;95366.00;;;10.00
30765;BMP180;494;48.744;10.106;2023-02-23T08:26:08;95230.00;;;10.10
30765;BMP180;494;48.744;10.106;2023-02-23T08:28:37;95314.00;;;10.10
30765;BMP180;494;48.744;10.106;2023-02-23T08:31:11;95474.00;;;10.20
30765;BMP180;494;48.744;10.106;2023-02-23T08:33:41;95303.00;;;8.00
30765;BMP180;494;48.744;10.106;2023-02-23T08:36:09;95041.00;;;9.90
30765;BMP180;494;48.744;10.106;2023-02-23T08:38:38;95312.00;;;10.00
30765;BMP180;494;48.744;10.106;2023-02-23T08:41:06;95374.00;;;10.20
30765;BMP180;494;48.744;10.106;2023-02-23T08:43:35;95135.00;;;10.20
30765;BMP180;494;48.744;10.106;2023-02-23T08:46:05;95108.00;;;10.30
30765;BMP180;494;48.744;10.106;2023-02-23T08:48:36;95404.00;;;10.40
30765;BMP180;494;48.744;10.106;2023-02-23T08:51:07;95444.00;;;10.50
30765;BMP180;494;48.744;10.106;2023-02-23T08:53:36;94844.00;;;10.50
30765;BMP180;494;48.744;10.106;2023-02-23T08:56:06;95147.00;;;10.50
30765;BMP180;494;48.744;10.106;2023-02-23T08:58:36;95246.00;;;9.70
30765;BMP180;494;48.744;10.106;2023-02-23T09:01:05;95288.00;;;10.60
30765;BMP180;494;48.744;10.106;2023-02-23T09:03:35;95381.00;;;10.80
30765;BMP180;494;48.744;10.106;2023-02-23T09:06:10;95386.00;;;10.80
30765;BMP180;494;48.744;10.106;2023-02-23T09:08:40;95392.00;;;10.30
30765;BMP180;494;48.744;10.106;2023-02-23T09:11:09;95423.00;;;11.20
30765;BMP180;494;48.744;10.106;2023-02-23T09:13:39;95209.00;;;11.10
30765;BMP180;494;48.744;10.106;2023-02-23T09:16:08;95181.00;;;11.20
30765;BMP180;494;48.744;10.106;2023-02-23T09:18:42;94641.00;;;11.30
30765;BMP180;494;48.744;10.106;2023-02-23T09:21:16;95105.00;;;9.80
30765;BMP180;494;48.744;10.106;2023-02-23T09:23:48;95281.00;;;11.50
30765;BMP180;494;48.744;10.106;2023-02-23T09:26:19;95192.00;;;11.50
30765;BMP180;494;48.744;10.106;2023-02-23T09:28:49;95425.00;;;10.10
30765;BMP180;494;48.744;10.106;2023-02-23T09:31:23;95111.00;;;10.60
30765;BMP180;494;48.744;10.106;2023-02-23T09:33:54;95392.00;;;11.00
30765;BMP180;494;48.744;10.106;2023-02-23T09:36:25;95387.00;;;11.40
30765;BMP180;494;48.744;10.106;2023-02-23T09:38:56;94778.00;;;11.50
30765;BMP180;494;48.744;10.106;2023-02-23T09:44:49;95129.00;;;11.30
30765;BMP180;494;48.744;10.106;2023-02-23T09:47:33;95390.00;;;12.00
30765;BMP180;494;48.744;10.106;2023-02-23T09:50:19;95439.00;;;12.00
30765;BMP180;494;48.744;10.106;2023-02-23T09:52:54;95115.00;;;12.10
30765;BMP180;494;48.744;10.106;2023-02-23T09:55:26;94700.00;;;11.80
30765;BMP180;494;48.744;10.106;2023-02-23T09:58:03;94603.00;;;12.00
30765;BMP180;494;48.744;10.106;2023-02-23T10:00:40;95389.00;;;12.40
30765;BMP180;494;48.744;10.106;2023-02-23T10:03:26;95387.00;;;12.50
30765;BMP180;494;48.744;10.106;2023-02-23T10:06:04;95262.00;;;12.70
30765;BMP180;494;48.744;10.106;2023-02-23T10:08:50;95036.00;;;11.80
30765;BMP180;494;48.744;10.106;2023-02-23T10:11:30;95388.00;;;12.80
30765;BMP180;494;48.744;10.106;2023-02-23T10:14:40;95301.00;;;12.70
30765;BMP180;494;48.744;10.106;2023-02-23T10:17:26;95391.00;;;13.00
30765;BMP180;494;48.744;10.106;2023-02-23T10:20:12;95395.00;;;13.00
30765;BMP180;494;48.744;10.106;2023-02-23T10:22:49;95391.00;;;13.30
30765;BMP180;494;48.744;10.106;2023-02-23T10:25:24;95317.00;;;13.20
30765;BMP180;494;48.744;10.106;2023-02-23T10:27:56;95304.00;;;13.30
30765;BMP180;494;48.744;10.106;2023-02-23T10:30:30;94880.00;;;13.40
30765;BMP180;494;48.744;10.106;2023-02-23T10:33:12;95417.00;;;13.60
30765;BMP180;494;48.744;10.106;2023-02-23T10:35:43;94792.00;;;13.70
30765;BMP180;494;48.744;10.106;2023-02-23T10:38:16;95209.00;;;13.70
30765;BMP180;494;48.744;10.106;2023-02-23T10:40:52;95389.00;;;13.80
30765;BMP180;494;48.744;10.106;2023-02-23T10:43:22;95391.00;;;13.80
30765;BMP180;494;48.744;10.106;2023-02-23T10:45:52;95194.00;;;14.00
30765;BMP180;494;48.744;10.106;2023-02-23T10:48:25;95390.00;;;14.00
30765;BMP180;494;48.744;10.106;2023-02-23T10:50:57;95148.00;;;14.10
30765;BMP180;494;48.744;10.106;2023-02-23T10:53:34;95383.00;;;14.00
30765;BMP180;494;48.744;10.106;2023-02-23T10:56:07;95391.00;;;14.00
30765;BMP180;494;48.744;10.106;2023-02-23T10:58:44;95217.00;;;14.10
30765;BMP180;494;48.744;10.106;2023-02-23T11:01:21;95441.00;;;14.00
30765;BMP180;494;48.744;10.106;2023-02-23T11:04:15;94987.00;;;14.50
30765;BMP180;494;48.744;10.106;2023-02-23T11:06:47;94995.00;;;14.00
30765;BMP180;494;48.744;10.106;2023-02-23T11:09:28;95121.00;;;14.30
30765;BMP180;494;48.744;10.106;2023-02-23T11:12:18;95195.00;;;14.10
30765;BMP180;494;48.744;10.106;2023-02-23T11:14:52;95132.00;;;13.90
30765;BMP180;494;48.744;10.106;2023-02-23T11:17:30;95278.00;;;14.80
30765;BMP180;494;48.744;10.106;2023-02-23T11:20:05;95371.00;;;15.00
30765;BMP180;494;48.744;10.106;2023-02-23T11:22:36;95269.00;;;15.10
30765;BMP180;494;48.744;10.106;2023-02-23T11:25:23;95397.00;;;15.10
30765;BMP180;494;48.744;10.106;2023-02-23T11:27:53;94902.00;;;15.30
30765;BMP180;494;48.744;10.106;2023-02-23T11:30:28;95355.00;;;15.50
30765;BMP180;494;48.744;10.106;2023-02-23T11:33:01;95258.00;;;15.60
30765;BMP180;494;48.744;10.106;2023-02-23T11:35:38;95249.00;;;15.20
30765;BMP180;494;48.744;10.106;2023-02-23T11:38:24;95251.00;;;16.50
30765;BMP180;494;48.744;10.106;2023-02-23T11:41:04;95345.00;;;16.80
30765;BMP180;494;48.744;10.106;2023-02-23T11:43:34;95346.00;;;16.80
30765;BMP180;494;48.744;10.106;2023-02-23T11:46:04;95341.00;;;16.80
30765;BMP180;494;48.744;10.106;2023-02-23T11:48:42;95190.00;;;16.80
30765;BMP180;494;48.744;10.106;2023-02-23T11:51:24;95377.00;;;15.90
30765;BMP180;494;48.744;10.106;2023-02-23T11:53:55;95146.00;;;16.70
30765;BMP180;494;48.744;10.106;2023-02-23T11:56:36;95156.00;;;15.50
30765;BMP180;494;48.744;10.106;2023-02-23T11:59:15;94982.00;;;16.60
30765;BMP180;494;48.744;10.106;2023-02-23T12:01:51;95176.00;;;16.90
30765;BMP180;494;48.744;10.106;2023-02-23T12:04:29;95361.00;;;16.90
30765;BMP180;494;48.744;10.106;2023-02-23T12:07:29;95230.00;;;17.10
30765;BMP180;494;48.744;10.106;2023-02-23T12:10:12;95362.00;;;16.90
30765;BMP180;494;48.744;10.106;2023-02-23T12:13:10;95354.00;;;16.60
30765;BMP180;494;48.744;10.106;2023-02-23T12:15:47;95330.00;;;16.30
30765;BMP180;494;48.744;10.106;2023-02-23T12:18:36;95325.00;;;15.90
30765;BMP180;494;48.744;10.106;2023-02-23T12:21:22;95193.00;;;15.10
30765;BMP180;494;48.744;10.106;2023-02-23T12:24:02;94674.00;;;15.80
30765;BMP180;494;48.744;10.106;2023-02-23T12:26:41;95159.00;;;15.90
30765;BMP180;494;48.744;10.106;2023-02-23T12:29:22;95205.00;;;15.80
30765;BMP180;494;48.744;10.106;2023-02-23T12:31:59;95318.00;;;16.00
30765;BMP180;494;48.744;10.106;2023-02-23T12:34:37;95253.00;;;16.30
30765;BMP180;494;48.744;10.106;2023-02-23T12:37:28;95308.00;;;16.50
30765;BMP180;494;48.744;10.106;2023-02-23T12:40:18;94957.00;;;16.60
30765;BMP180;494;48.744;10.106;2023-02-23T12:42:59;95024.00;;;16.70
30765;BMP180;494;48.744;10.106;2023-02-23T12:45:39;95315.00;;;16.40
30765;BMP180;494;48.744;10.106;2023-02-23T12:48:30;95228.00;;;16.40
30765;BMP180;494;48.744;10.106;2023-02-23T12:51:13;95072.00;;;15.90
30765;BMP180;494;48.744;10.106;2023-02-23T12:53:46;95163.00;;;15.90
30765;BMP180;494;48.744;10.106;2023-02-23T12:56:45;95299.00;;;15.70
30765;BMP180;494;48.744;10.106;2023-02-23T13:00:00;95300.00;;;15.60
30765;BMP180;494;48.744;10.106;2023-02-23T13:02:44;95240.00;;;14.40
30765;BMP180;494;48.744;10.106;2023-02-23T13:05:25;95346.00;;;15.80
30765;BMP180;494;48.744;10.106;2023-02-23T13:08:07;95299.00;;;15.70
30765;BMP180;494;48.744;10.106;2023-02-23T13:10:50;94806.00;;;15.40
30765;BMP180;494;48.744;10.106;2023-02-23T13:13:34;95127.00;;;15.30
30765;BMP180;494;48.744;10.106;2023-02-23T13:16:16;95301.00;;;15.80
30765;BMP180;494;48.744;10.106;2023-02-23T13:18:56;95273.00;;;14.70
30765;BMP180;494;48.744;10.106;2023-02-23T13:21:39;95042.00;;;15.50
30765;BMP180;494;48.744;10.106;2023-02-23T13:24:18;95298.00;;;15.60
30765;BMP180;494;48.744;10.106;2023-02-23T13:26:58;94868.00;;;15.60
30765;BMP180;494;48.744;10.106;2023-02-23T13:29:36;95293.00;;;15.90
30765;BMP180;494;48.744;10.106;2023-02-23T13:32:12;95226.00;;;15.70
30765;BMP180;494;48.744;10.106;2023-02-23T13:34:50;95303.00;;;16.00
30765;BMP180;494;48.744;10.106;2023-02-23T13:37:27;95134.00;;;16.20
30765;BMP180;494;48.744;10.106;2023-02-23T13:40:14;95282.00;;;14.70
30765;BMP180;494;48.744;10.106;2023-02-23T13:42:59;95279.00;;;16.40
30765;BMP180;494;48.744;10.106;2023-02-23T13:45:52;95299.00;;;16.50
30765;BMP180;494;48.744;10.106;2023-02-23T13:48:43;95283.00;;;16.40
30765;BMP180;494;48.744;10.106;2023-02-23T13:51:35;95316.00;;;16.30
30765;BMP180;494;48.744;10.106;2023-02-23T13:54:22;95136.00;;;16.70
30765;BMP180;494;48.744;10.106;2023-02-23T13:56:57;95309.00;;;16.80
30765;BMP180;494;48.744;10.106;2023-02-23T13:59:30;95275.00;;;16.50
30765;BMP180;494;48.744;10.106;2023-02-23T14:02:36;95281.00;;;16.30
30765;BMP180;494;48.744;10.106;2023-02-23T14:05:17;95293.00;;;16.30
30765;BMP180;494;48.744;10.106;2023-02-23T14:07:54;95285.00;;;16.30
30765;BMP180;494;48.744;10.106;2023-02-23T14:10:34;95015.00;;;16.20
30765;BMP180;494;48.744;10.106;2023-02-23T14:13:24;95142.00;;;16.40
30765;BMP180;494;48.744;10.106;2023-02-23T14:16:18;94705.00;;;16.40
30765;BMP180;494;48.744;10.106;2023-02-23T14:19:09;95303.00;;;16.20
30765;BMP180;494;48.744;10.106;2023-02-23T14:21:50;95288.00;;;16.10
30765;BMP180;494;48.744;10.106;2023-02-23T14:24:26;95161.00;;;16.30
30765;BMP180;494;48.744;10.106;2023-02-23T14:27:21;95273.00;;;15.40
30765;BMP180;494;48.744;10.106;2023-02-23T14:30:21;95188.00;;;16.00
30765;BMP180;494;48.744;10.106;2023-02-23T14:32:51;95264.00;;;16.10
30765;BMP180;494;48.744;10.106;2023-02-23T14:35:43;95242.00;;;16.20
30765;BMP180;494;48.744;10.106;2023-02-23T14:38:25;95268.00;;;15.90
30765;BMP180;494;48.744;10.106;2023-02-23T14:41:20;95072.00;;;16.20
30765;BMP180;494;48.744;10.106;2023-02-23T14:43:53;94720.00;;;14.90
30765;BMP180;494;48.744;10.106;2023-02-23T14:46:24;94895.00;;;16.30
30765;BMP180;494;48.744;10.106;2023-02-23T14:49:09;95296.00;;;16.10
30765;BMP180;494;48.744;10.106;2023-02-23T14:51:46;95060.00;;;16.30
30765;BMP180;494;48.744;10.106;2023-02-23T14:54:32;94911.00;;;17.30
30765;BMP180;494;48.744;10.106;2023-02-23T14:57:05;95243.00;;;17.80
30765;BMP180;494;48.744;10.106;2023-02-23T14:59:40;95256.00;;;18.00
30765;BMP180;494;48.744;10.106;2023-02-23T15:02:11;95258.00;;;18.40
30765;BMP180;494;48.744;10.106;2023-02-23T15:04:44;95041.00;;;18.60
30765;BMP180;494;48.744;10.106;2023-02-23T15:07:18;95252.00;;;18.80
30765;BMP180;494;48.744;10.106;2023-02-23T15:09:52;95257.00;;;18.80
30765;BMP180;494;48.744;10.106;2023-02-23T15:12:27;95146.00;;;19.90
30765;BMP180;494;48.744;10.106;2023-02-23T15:15:00;95064.00;;;20.80
30765;BMP180;494;48.744;10.106;2023-02-23T15:17:32;95133.00;;;20.80
30765;BMP180;494;48.744;10.106;2023-02-23T15:20:05;95258.00;;;21.40
30765;BMP180;494;48.744;10.106;2023-02-23T15:22:46;95267.00;;;21.10
30765;BMP180;494;48.744;10.106;2023-02-23T15:25:19;95262.00;;;20.20
30765;BMP180;494;48.744;10.106;2023-02-23T15:27:50;95261.00;;;20.00
30765;BMP180;494;48.744;10.106;2023-02-23T15:30:25;95262.00;;;19.80
30765;BMP180;494;48.744;10.106;2023-02-23T15:33:02;95267.00;;;19.20